Time;durP1;ratioP1;P1;durP2;ratioP2;P2;SDS_P1;SDS_P2;PMS_P1;PMS_P2;Temp;Humidity;BMP_temperature;BMP_pressure;BME280_temperature;BME280_humidity;BME280_pressure;Samples;Min_cycle;Max_cycle;Signal;HPM_P1;HPM_P2
2023/03/14 00:00:25;;;;;;;1.87;0.20;;;11.80;99.90;;;;;;5052010;28;20205;-46
2023/03/14 00:02:53;;;;;;;1.17;0.13;;;11.60;99.90;;;;;;5053429;28;20223;-51
2023/03/14 00:05:20;;;;;;;0.57;0.10;;;11.40;99.90;;;;;;5052814;28;20585;-47
2023/03/14 00:07:47;;;;;;;0.80;0.23;;;11.10;99.90;;;;;;5052762;28;20712;-45
2023/03/14 00:10:16;;;;;;;0.53;0.00;;;10.90;99.90;;;;;;5054216;28;20207;-47
2023/03/14 00:12:43;;;;;;;0.43;0.10;;;10.80;99.90;;;;;;5052346;28;20230;-46
2023/03/14 00:15:13;;;;;;;1.90;0.13;;;10.70;99.90;;;;;;5051118;28;20207;-47
2023/03/14 00:17:40;;;;;;;0.13;0.00;;;10.60;99.90;;;;;;5052894;28;20265;-47
2023/03/14 00:20:10;;;;;;;0.00;0.00;;;10.50;99.90;;;;;;5056764;28;20561;-47
2023/03/14 00:22:38;;;;;;;0.40;0.00;;;10.50;99.90;;;;;;5057480;28;20213;-46
2023/03/14 00:25:07;;;;;;;0.00;0.00;;;10.50;99.90;;;;;;5059249;28;20207;-46
2023/03/14 00:27:34;;;;;;;0.00;0.00;;;10.40;99.90;;;;;;5056972;28;20251;-46
2023/03/14 00:30:01;;;;;;;0.40;0.07;;;10.40;99.90;;;;;;5056837;28;20204;-48
2023/03/14 00:32:30;;;;;;;0.30;0.10;;;10.40;99.90;;;;;;5055864;28;20219;-45
2023/03/14 00:34:57;;;;;;;0.97;0.10;;;10.50;99.90;;;;;;5055634;28;20304;-45
2023/03/14 00:37:24;;;;;;;0.03;0.03;;;10.50;99.90;;;;;;5056891;28;20197;-49
2023/03/14 00:39:53;;;;;;;0.20;0.10;;;10.40;99.90;;;;;;5058408;28;20208;-47
2023/03/14 00:42:20;;;;;;;0.30;0.10;;;10.30;99.90;;;;;;5056530;28;20206;-55
2023/03/14 00:44:47;;;;;;;0.37;0.00;;;10.40;99.90;;;;;;5054994;28;20249;-44
2023/03/14 00:47:14;;;;;;;0.10;0.00;;;10.50;99.90;;;;;;5056285;28;20669;-45
2023/03/14 00:49:43;;;;;;;0.00;0.00;;;10.50;99.90;;;;;;5056301;28;20208;-45
2023/03/14 00:52:12;;;;;;;0.00;0.00;;;10.40;99.90;;;;;;5056260;28;20332;-45
2023/03/14 00:54:39;;;;;;;0.00;0.00;;;10.50;99.90;;;;;;5058279;28;20195;-47
2023/03/14 00:57:06;;;;;;;0.30;0.10;;;10.40;99.90;;;;;;5055442;28;20256;-46
2023/03/14 00:59:33;;;;;;;0.63;0.20;;;10.40;99.90;;;;;;5055054;28;20209;-48
2023/03/14 01:02:00;;;;;;;0.20;0.10;;;10.40;99.90;;;;;;5056026;28;20199;-44
2023/03/14 01:04:27;;;;;;;0.17;0.10;;;10.40;99.90;;;;;;5060967;28;20218;-46
2023/03/14 01:06:56;;;;;;;0.10;0.10;;;10.30;99.90;;;;;;5059310;28;20207;-47
2023/03/14 01:09:23;;;;;;;0.73;0.10;;;10.20;99.90;;;;;;5057101;28;20658;-46
2023/03/14 01:11:50;;;;;;;0.00;0.00;;;10.20;99.90;;;;;;5056674;28;20223;-46
2023/03/14 01:14:17;;;;;;;0.10;0.10;;;10.20;99.90;;;;;;5055659;28;20286;-47
2023/03/14 01:16:44;;;;;;;0.10;0.10;;;10.10;99.90;;;;;;5057006;28;20673;-45
2023/03/14 01:19:11;;;;;;;0.10;0.10;;;10.10;99.90;;;;;;5055312;28;20255;-46
2023/03/14 01:21:38;;;;;;;0.73;0.00;;;10.10;99.90;;;;;;5056441;28;20328;-46
2023/03/14 01:24:07;;;;;;;1.40;0.00;;;10.20;99.90;;;;;;5056583;28;20382;-45
2023/03/14 01:26:35;;;;;;;0.83;0.17;;;10.10;99.90;;;;;;5055759;28;20646;-45
2023/03/14 01:29:03;;;;;;;0.10;0.10;;;10.10;99.90;;;;;;5054545;28;21723;-46
2023/03/14 01:31:30;;;;;;;1.07;0.10;;;10.10;99.90;;;;;;5055517;28;20209;-47
2023/03/14 01:33:57;;;;;;;0.00;0.00;;;10.20;99.90;;;;;;5057623;28;20320;-47
2023/03/14 01:36:24;;;;;;;0.10;0.00;;;10.10;99.90;;;;;;5054777;28;20203;-46
2023/03/14 01:38:51;;;;;;;0.00;0.00;;;10.00;99.90;;;;;;5059271;28;20203;-48
2023/03/14 01:41:22;;;;;;;0.10;0.10;;;10.10;99.90;;;;;;5056061;28;20208;-44
2023/03/14 01:43:49;;;;;;;0.57;0.10;;;10.10;99.90;;;;;;5054277;28;20227;-48
2023/03/14 01:46:25;;;;;;;0.10;0.10;;;10.00;99.90;;;;;;5054434;28;20253;-45
2023/03/14 01:49:01;;;;;;;0.20;0.20;;;10.00;99.90;;;;;;5054433;28;20213;-46
2023/03/14 01:51:35;;;;;;;0.83;0.10;;;9.80;99.90;;;;;;5054849;28;20741;-46
2023/03/14 01:54:09;;;;;;;0.20;0.20;;;9.70;99.90;;;;;;5059410;28;20417;-46
2023/03/14 01:56:39;;;;;;;0.77;0.10;;;9.50;99.90;;;;;;5058324;28;20207;-46
2023/03/14 01:59:08;;;;;;;0.63;0.10;;;9.50;99.90;;;;;;5055018;28;20584;-45
2023/03/14 02:01:37;;;;;;;0.10;0.10;;;9.50;99.90;;;;;;5058167;28;20210;-46
2023/03/14 02:04:06;;;;;;;0.20;0.10;;;9.50;99.90;;;;;;5054822;28;20276;-44
2023/03/14 02:06:42;;;;;;;0.00;0.00;;;9.40;99.90;;;;;;5062580;28;20211;-45
2023/03/14 02:09:09;;;;;;;0.20;0.00;;;9.60;99.90;;;;;;5060892;28;20206;-45
2023/03/14 02:11:37;;;;;;;0.17;0.17;;;9.60;99.90;;;;;;5055366;28;20206;-45
2023/03/14 02:14:05;;;;;;;0.10;0.10;;;9.60;99.90;;;;;;5053737;28;20730;-45
2023/03/14 02:16:32;;;;;;;0.43;0.10;;;9.50;99.90;;;;;;5054799;28;20265;-46
2023/03/14 02:19:00;;;;;;;0.27;0.00;;;9.50;99.90;;;;;;5054019;28;20692;-45
2023/03/14 02:21:39;;;;;;;0.10;0.10;;;9.50;99.90;;;;;;5055394;28;20210;-46
2023/03/14 02:24:16;;;;;;;0.30;0.00;;;9.40;99.90;;;;;;5056020;28;20234;-46
2023/03/14 02:29:43;;;;;;;1.30;0.00;;;9.30;99.90;;;;;;5072157;27;1429240;-46
2023/03/14 02:32:11;;;;;;;0.10;0.10;;;9.40;99.90;;;;;;5106383;28;20206;-45
2023/03/14 02:34:38;;;;;;;0.10;0.10;;;9.50;99.90;;;;;;5107535;28;20674;-47
2023/03/14 02:37:06;;;;;;;0.27;0.00;;;9.40;99.90;;;;;;5108655;28;20202;-47
2023/03/14 02:39:38;;;;;;;0.00;0.00;;;9.30;99.90;;;;;;5108354;28;20662;-47
2023/03/14 02:42:06;;;;;;;0.10;0.10;;;9.30;99.90;;;;;;5107337;28;20197;-47
2023/03/14 02:44:35;;;;;;;0.40;0.10;;;9.30;99.90;;;;;;5110017;28;20280;-45
2023/03/14 02:47:04;;;;;;;0.00;0.00;;;9.30;99.90;;;;;;5107534;28;20205;-48
2023/03/14 02:49:32;;;;;;;0.00;0.00;;;9.40;99.90;;;;;;5108374;28;20219;-47
2023/03/14 02:51:59;;;;;;;0.10;0.00;;;9.30;99.90;;;;;;5105932;28;20284;-46
2023/03/14 02:54:26;;;;;;;0.07;0.07;;;9.30;99.90;;;;;;5107768;28;20291;-46
2023/03/14 02:56:53;;;;;;;0.10;0.10;;;9.30;99.90;;;;;;5108090;28;22133;-46
2023/03/14 02:59:20;;;;;;;0.20;0.20;;;9.30;99.90;;;;;;5107107;28;20216;-49
2023/03/14 03:01:47;;;;;;;0.40;0.10;;;9.30;99.90;;;;;;5107014;28;20199;-47
2023/03/14 03:04:16;;;;;;;0.00;0.00;;;9.20;99.90;;;;;;5108661;28;20290;-47
2023/03/14 03:06:43;;;;;;;0.00;0.00;;;9.20;99.90;;;;;;5107542;28;20199;-47
2023/03/14 03:09:10;;;;;;;0.10;0.10;;;9.20;99.90;;;;;;5106276;28;20219;-45
2023/03/14 03:11:37;;;;;;;0.10;0.00;;;9.30;99.90;;;;;;5105967;28;20217;-48
2023/03/14 03:14:04;;;;;;;0.33;0.07;;;9.30;99.90;;;;;;5108577;28;20722;-47
2023/03/14 03:16:31;;;;;;;0.00;0.00;;;9.30;99.90;;;;;;5109399;28;20254;-48
2023/03/14 03:18:58;;;;;;;0.10;0.10;;;9.30;99.90;;;;;;5106209;28;20201;-46
2023/03/14 03:21:26;;;;;;;0.03;0.03;;;9.20;99.90;;;;;;5106075;28;20745;-46
2023/03/14 03:23:53;;;;;;;0.43;0.10;;;9.20;99.90;;;;;;5107760;28;20221;-47
2023/03/14 03:26:20;;;;;;;0.10;0.10;;;9.20;99.90;;;;;;5107052;28;20256;-45
2023/03/14 03:28:47;;;;;;;0.10;0.10;;;9.20;99.90;;;;;;5106380;28;20229;-46
2023/03/14 03:31:14;;;;;;;0.10;0.10;;;9.20;99.90;;;;;;5104496;28;20202;-46
2023/03/14 03:33:41;;;;;;;0.20;0.10;;;9.20;99.90;;;;;;5106439;28;20787;-46
2023/03/14 03:36:10;;;;;;;0.10;0.10;;;9.20;99.90;;;;;;5106714;28;20601;-46
2023/03/14 03:38:38;;;;;;;0.10;0.10;;;9.10;99.90;;;;;;5107339;28;20254;-47
2023/03/14 03:41:07;;;;;;;1.03;0.00;;;9.00;99.90;;;;;;5092681;28;20206;-45
2023/03/14 03:43:34;;;;;;;0.10;0.10;;;9.00;99.90;;;;;;5092632;28;21928;-46
2023/03/14 03:46:04;;;;;;;0.63;0.60;;;9.00;99.90;;;;;;5092995;28;20204;-46
2023/03/14 03:48:31;;;;;;;1.13;0.00;;;9.00;99.90;;;;;;5093944;28;20211;-46
2023/03/14 03:50:58;;;;;;;0.60;0.00;;;9.00;99.90;;;;;;5090462;28;20673;-45
2023/03/14 03:53:25;;;;;;;0.10;0.10;;;8.90;99.90;;;;;;5092967;28;20221;-48
2023/03/14 03:55:54;;;;;;;0.00;0.00;;;8.90;99.90;;;;;;5091523;28;20883;-48
2023/03/14 03:58:21;;;;;;;0.10;0.10;;;8.90;99.90;;;;;;5093073;28;20341;-45
2023/03/14 04:00:48;;;;;;;1.03;0.10;;;8.90;99.90;;;;;;5091868;28;20208;-45
2023/03/14 04:03:15;;;;;;;0.10;0.10;;;8.80;99.90;;;;;;5094372;28;20218;-45
2023/03/14 04:05:42;;;;;;;0.00;0.00;;;8.80;99.90;;;;;;5092724;28;20288;-46
2023/03/14 04:08:09;;;;;;;0.30;0.10;;;8.70;99.90;;;;;;5091400;28;20727;-47
2023/03/14 04:10:36;;;;;;;0.10;0.10;;;8.80;99.90;;;;;;5091953;28;20378;-47
2023/03/14 04:13:04;;;;;;;0.20;0.20;;;8.90;99.90;;;;;;5092484;28;20715;-47
2023/03/14 04:15:31;;;;;;;0.17;0.17;;;8.90;99.90;;;;;;5094145;28;20198;-48
2023/03/14 04:17:59;;;;;;;0.10;0.10;;;8.90;99.90;;;;;;5091448;28;20252;-48
2023/03/14 04:20:26;;;;;;;0.10;0.10;;;8.90;99.90;;;;;;5090498;28;20272;-47
2023/03/14 04:22:53;;;;;;;0.30;0.10;;;8.90;99.90;;;;;;5091977;28;20229;-46
2023/03/14 04:25:20;;;;;;;0.60;0.10;;;8.90;99.90;;;;;;5092894;28;20204;-47
2023/03/14 04:27:51;;;;;;;0.10;0.10;;;8.90;99.90;;;;;;5092348;28;20643;-46
2023/03/14 04:30:20;;;;;;;0.17;0.17;;;8.90;99.90;;;;;;5090536;28;20198;-45
2023/03/14 04:32:47;;;;;;;0.40;0.10;;;8.80;99.90;;;;;;5091210;28;20337;-47
2023/03/14 04:35:14;;;;;;;0.33;0.10;;;8.90;99.90;;;;;;5091658;28;20680;-46
2023/03/14 04:37:43;;;;;;;0.00;0.00;;;8.80;99.90;;;;;;5092129;28;20256;-45
2023/03/14 04:40:11;;;;;;;0.10;0.10;;;8.80;99.90;;;;;;5092181;27;20206;-45
2023/03/14 04:42:38;;;;;;;0.33;0.20;;;8.80;99.90;;;;;;5091108;28;22492;-47
2023/03/14 04:45:06;;;;;;;0.33;0.00;;;8.80;99.90;;;;;;5096546;28;20202;-48
2023/03/14 04:47:34;;;;;;;0.00;0.00;;;8.80;99.90;;;;;;5091472;28;20633;-46
2023/03/14 04:50:01;;;;;;;0.57;0.00;;;8.80;99.90;;;;;;5091235;28;20218;-46
2023/03/14 04:52:28;;;;;;;0.10;0.10;;;8.70;99.90;;;;;;5090446;28;20258;-46
2023/03/14 04:54:55;;;;;;;0.03;0.03;;;8.70;99.90;;;;;;5090733;27;20751;-45
2023/03/14 04:57:22;;;;;;;0.10;0.10;;;8.70;99.90;;;;;;5090501;28;20605;-47
2023/03/14 04:59:49;;;;;;;0.13;0.13;;;8.80;99.90;;;;;;5092493;28;20212;-46
2023/03/14 05:02:16;;;;;;;0.20;0.20;;;8.70;99.90;;;;;;5093896;28;20210;-46
2023/03/14 05:04:45;;;;;;;0.10;0.10;;;8.70;99.90;;;;;;5105162;28;20206;-46
2023/03/14 05:07:12;;;;;;;0.30;0.20;;;8.70;99.90;;;;;;5111180;28;20267;-47
2023/03/14 05:09:39;;;;;;;0.30;0.13;;;8.70;99.90;;;;;;5118784;27;20270;-47
2023/03/14 05:12:06;;;;;;;0.10;0.10;;;8.70;99.90;;;;;;5113541;28;20258;-47
2023/03/14 05:14:33;;;;;;;0.13;0.13;;;8.70;99.90;;;;;;5111684;28;20225;-48
2023/03/14 05:17:00;;;;;;;4.83;0.43;;;8.70;99.90;;;;;;5110462;28;20689;-47
2023/03/14 05:19:27;;;;;;;0.10;0.10;;;8.70;99.90;;;;;;5110185;28;20621;-48
2023/03/14 05:21:55;;;;;;;0.10;0.10;;;8.70;99.90;;;;;;5113100;28;20201;-47
2023/03/14 05:24:22;;;;;;;0.73;0.20;;;8.80;99.90;;;;;;5109537;28;20593;-47
2023/03/14 05:26:49;;;;;;;0.20;0.20;;;8.80;99.90;;;;;;5116929;27;20261;-47
2023/03/14 05:29:16;;;;;;;1.47;0.20;;;8.80;99.90;;;;;;5110804;28;20215;-47
2023/03/14 05:31:43;;;;;;;0.20;0.10;;;8.80;99.90;;;;;;5112854;28;20197;-47
2023/03/14 05:34:10;;;;;;;0.00;0.00;;;8.80;99.90;;;;;;5110925;28;20781;-47
2023/03/14 05:36:37;;;;;;;0.10;0.10;;;8.90;99.90;;;;;;5109829;28;20675;-47
2023/03/14 05:39:06;;;;;;;1.40;0.00;;;8.90;99.90;;;;;;5102203;28;20200;-48
2023/03/14 05:41:33;;;;;;;0.13;0.10;;;8.90;99.90;;;;;;5096276;28;20739;-46
2023/03/14 05:44:00;;;;;;;0.10;0.10;;;8.80;99.90;;;;;;5104944;28;20224;-49
2023/03/14 05:46:27;;;;;;;3.47;0.20;;;8.70;99.90;;;;;;5110073;28;20669;-46
2023/03/14 05:48:54;;;;;;;0.07;0.07;;;8.80;99.90;;;;;;5100005;28;20218;-47
2023/03/14 05:51:21;;;;;;;2.13;0.20;;;8.80;99.90;;;;;;5110598;28;20205;-46
2023/03/14 05:53:48;;;;;;;2.40;0.17;;;8.70;99.90;;;;;;5102317;28;20276;-48
2023/03/14 05:56:17;;;;;;;1.07;0.20;;;8.70;99.90;;;;;;5112623;28;20209;-46
2023/03/14 05:58:44;;;;;;;0.03;0.03;;;8.70;99.90;;;;;;5111405;28;20201;-47
2023/03/14 06:01:11;;;;;;;0.67;0.27;;;8.70;99.90;;;;;;5112213;28;20644;-46
2023/03/14 06:03:38;;;;;;;0.20;0.20;;;8.70;99.90;;;;;;5111977;28;20794;-48
2023/03/14 06:06:05;;;;;;;0.53;0.10;;;8.70;99.90;;;;;;5112413;28;20747;-47
2023/03/14 06:08:34;;;;;;;0.10;0.10;;;8.70;99.90;;;;;;5102536;28;20658;-47
2023/03/14 06:11:03;;;;;;;0.10;0.03;;;8.70;99.90;;;;;;5111981;28;20598;-48
2023/03/14 06:13:31;;;;;;;0.30;0.30;;;8.70;99.90;;;;;;5112299;28;20292;-46
2023/03/14 06:15:58;;;;;;;0.87;0.40;;;8.60;99.90;;;;;;5110344;28;20203;-47
2023/03/14 06:18:25;;;;;;;0.47;0.30;;;8.60;99.90;;;;;;5112136;28;20720;-48
2023/03/14 06:20:55;;;;;;;2.07;0.50;;;8.50;99.90;;;;;;5110974;28;20204;-47
2023/03/14 06:23:22;;;;;;;5.00;0.50;;;8.50;99.90;;;;;;5105366;28;20218;-47
2023/03/14 06:25:50;;;;;;;0.83;0.40;;;8.50;99.90;;;;;;5112883;28;20197;-47
2023/03/14 06:28:17;;;;;;;0.77;0.30;;;8.40;99.90;;;;;;5111720;28;20682;-48
2023/03/14 06:30:45;;;;;;;0.30;0.30;;;8.50;99.90;;;;;;5111991;28;20221;-47
2023/03/14 06:33:12;;;;;;;0.27;0.20;;;8.40;99.90;;;;;;5112196;28;20225;-48
2023/03/14 06:35:39;;;;;;;0.30;0.30;;;8.40;99.90;;;;;;5107990;28;20214;-48
2023/03/14 06:38:06;;;;;;;1.00;0.20;;;8.40;99.90;;;;;;5111215;28;20198;-48
2023/03/14 06:40:33;;;;;;;1.70;0.10;;;8.40;99.90;;;;;;5109266;28;20213;-46
2023/03/14 06:43:00;;;;;;;0.10;0.10;;;8.50;99.90;;;;;;5098751;28;20232;-47
2023/03/14 06:45:27;;;;;;;1.43;0.80;;;8.50;99.90;;;;;;5112203;28;20259;-47
2023/03/14 06:47:57;;;;;;;1.90;0.90;;;8.50;99.90;;;;;;5109971;28;20268;-46
2023/03/14 06:50:24;;;;;;;1.33;0.20;;;8.60;99.90;;;;;;5111654;28;20594;-48
2023/03/14 06:52:51;;;;;;;0.10;0.10;;;8.60;99.90;;;;;;5112996;28;20221;-47
2023/03/14 06:55:18;;;;;;;0.10;0.10;;;8.60;99.90;;;;;;5100816;28;20271;-47
2023/03/14 06:57:46;;;;;;;0.20;0.20;;;8.60;99.90;;;;;;5111353;28;20200;-48
2023/03/14 07:00:14;;;;;;;0.10;0.10;;;8.60;99.90;;;;;;5127764;28;20192;-48
2023/03/14 07:02:41;;;;;;;0.53;0.10;;;8.70;99.90;;;;;;5113242;28;20284;-46
2023/03/14 07:05:11;;;;;;;0.20;0.10;;;8.70;99.90;;;;;;5127168;28;20201;-47
2023/03/14 07:07:38;;;;;;;0.10;0.10;;;8.80;99.90;;;;;;5132155;28;20555;-46
2023/03/14 07:10:05;;;;;;;0.30;0.20;;;8.80;99.90;;;;;;5106637;28;20709;-48
2023/03/14 07:12:32;;;;;;;0.20;0.20;;;8.90;99.90;;;;;;5101131;28;20225;-46
2023/03/14 07:14:59;;;;;;;0.40;0.30;;;9.00;99.90;;;;;;5107641;28;20867;-47
2023/03/14 07:17:27;;;;;;;0.57;0.20;;;9.00;99.90;;;;;;5107956;28;20200;-45
2023/03/14 07:19:54;;;;;;;0.40;0.30;;;9.10;99.90;;;;;;5114436;28;20202;-47
2023/03/14 07:22:22;;;;;;;1.70;0.30;;;9.20;99.90;;;;;;5111653;28;20684;-47
2023/03/14 07:24:49;;;;;;;0.27;0.27;;;9.30;99.90;;;;;;5109823;28;20727;-49
2023/03/14 07:27:16;;;;;;;0.43;0.43;;;9.30;99.90;;;;;;5106643;28;20203;-47
2023/03/14 07:29:45;;;;;;;0.10;0.10;;;9.40;99.90;;;;;;5100600;28;20222;-47
2023/03/14 07:32:15;;;;;;;0.10;0.10;;;9.40;99.90;;;;;;5113858;27;20202;-47
2023/03/14 07:34:44;;;;;;;0.20;0.20;;;9.50;99.90;;;;;;5112006;27;20705;-47
2023/03/14 07:37:11;;;;;;;0.70;0.10;;;9.60;99.90;;;;;;5107875;28;20698;-47
2023/03/14 07:39:39;;;;;;;0.20;0.20;;;9.80;99.90;;;;;;5108475;28;20224;-48
2023/03/14 07:42:06;;;;;;;0.20;0.20;;;9.80;99.90;;;;;;5103470;28;20202;-47
2023/03/14 07:44:34;;;;;;;2.00;0.10;;;9.80;99.90;;;;;;5105160;28;20272;-48
2023/03/14 07:47:01;;;;;;;0.20;0.10;;;9.70;99.90;;;;;;5110323;28;20238;-46
2023/03/14 07:49:28;;;;;;;0.63;0.20;;;9.70;99.90;;;;;;5109389;28;20763;-46
2023/03/14 07:51:55;;;;;;;0.67;0.30;;;9.70;99.90;;;;;;5107273;28;20694;-46
2023/03/14 07:54:23;;;;;;;0.60;0.20;;;9.90;99.90;;;;;;5106827;28;20222;-47
2023/03/14 07:56:52;;;;;;;1.03;0.10;;;10.10;99.90;;;;;;5108781;28;20263;-46
2023/03/14 07:59:20;;;;;;;0.40;0.10;;;10.30;99.90;;;;;;5111402;28;20194;-46
2023/03/14 08:01:48;;;;;;;0.73;0.13;;;10.40;99.90;;;;;;5108580;28;20578;-47
2023/03/14 08:04:15;;;;;;;0.13;0.10;;;10.60;99.90;;;;;;5109649;28;20307;-46
2023/03/14 08:06:41;;;;;;;0.20;0.20;;;10.60;99.90;;;;;;5113963;28;20277;-47
2023/03/14 08:09:08;;;;;;;0.20;0.10;;;10.50;99.90;;;;;;5111555;28;20815;-47
2023/03/14 08:11:35;;;;;;;1.90;0.10;;;10.60;99.90;;;;;;5110414;28;20196;-48
2023/03/14 08:14:04;;;;;;;1.27;0.20;;;10.70;99.90;;;;;;5111266;28;20215;-47
2023/03/14 08:16:31;;;;;;;1.83;0.17;;;10.70;99.90;;;;;;5113298;28;20247;-47
2023/03/14 08:18:57;;;;;;;0.40;0.20;;;10.70;99.90;;;;;;5097273;28;20197;-47
2023/03/14 08:21:24;;;;;;;0.10;0.10;;;10.70;99.90;;;;;;5098934;28;20197;-47
2023/03/14 08:23:51;;;;;;;0.13;0.13;;;10.60;99.90;;;;;;5105394;28;20221;-48
2023/03/14 08:26:19;;;;;;;2.87;0.20;;;10.70;99.90;;;;;;5109573;28;20251;-47
2023/03/14 08:28:46;;;;;;;0.63;0.10;;;11.20;99.90;;;;;;5112297;28;20216;-46
2023/03/14 08:31:14;;;;;;;0.07;0.07;;;11.60;99.90;;;;;;5115052;27;20218;-47
2023/03/14 08:33:41;;;;;;;0.60;0.20;;;11.70;99.90;;;;;;5111504;28;20282;-47
2023/03/14 08:36:10;;;;;;;0.20;0.20;;;11.70;99.90;;;;;;5097236;28;20295;-46
2023/03/14 08:38:37;;;;;;;0.50;0.10;;;11.80;99.90;;;;;;5100416;28;20217;-45
2023/03/14 08:41:04;;;;;;;0.60;0.20;;;11.90;99.90;;;;;;5110262;28;20786;-49
2023/03/14 08:43:32;;;;;;;1.50;0.23;;;12.20;99.90;;;;;;5111399;28;20217;-47
2023/03/14 08:45:59;;;;;;;0.10;0.10;;;12.30;99.90;;;;;;5112726;28;20251;-47
2023/03/14 08:48:29;;;;;;;0.60;0.20;;;12.30;99.90;;;;;;5110595;28;20193;-46
2023/03/14 08:50:56;;;;;;;0.63;0.63;;;12.60;99.90;;;;;;5101763;28;20225;-47
2023/03/14 08:53:23;;;;;;;0.27;0.10;;;12.70;99.90;;;;;;5113078;28;20218;-48
2023/03/14 08:55:54;;;;;;;0.20;0.10;;;13.10;99.90;;;;;;5112677;28;20206;-47
2023/03/14 08:58:22;;;;;;;0.60;0.30;;;13.20;99.90;;;;;;5112711;28;20598;-50
2023/03/14 09:00:49;;;;;;;0.10;0.03;;;13.00;99.90;;;;;;5105837;28;20287;-46
2023/03/14 09:03:16;;;;;;;0.47;0.10;;;12.70;99.90;;;;;;5112648;28;20636;-48
2023/03/14 09:05:45;;;;;;;0.90;0.20;;;12.60;99.90;;;;;;5110143;28;20936;-48
2023/03/14 09:08:12;;;;;;;1.67;0.75;;;12.50;99.90;;;;;;5108600;28;20446;-47
2023/03/14 09:10:39;;;;;;;0.07;0.00;;;12.30;99.90;;;;;;5105204;28;20842;-48
2023/03/14 09:13:06;;;;;;;2.10;0.10;;;12.40;99.90;;;;;;5112243;28;20333;-47
2023/03/14 09:15:33;;;;;;;0.37;0.10;;;12.30;99.90;;;;;;5111602;28;20228;-49
2023/03/14 09:18:00;;;;;;;1.47;0.03;;;12.50;99.90;;;;;;5110284;28;20202;-47
2023/03/14 09:20:28;;;;;;;0.73;0.10;;;12.70;99.90;;;;;;5107430;28;20209;-48
2023/03/14 09:22:58;;;;;;;4.03;0.10;;;12.90;99.90;;;;;;5113614;27;20836;-48
2023/03/14 09:25:25;;;;;;;0.50;0.10;;;13.20;99.90;;;;;;5113200;28;20705;-47
2023/03/14 09:27:55;;;;;;;0.10;0.10;;;13.60;99.90;;;;;;5133351;27;20260;-46
2023/03/14 09:30:22;;;;;;;0.73;0.23;;;14.10;99.90;;;;;;5129861;27;20217;-47
2023/03/14 09:32:53;;;;;;;0.60;0.20;;;14.20;99.90;;;;;;5108064;28;20277;-47
2023/03/14 09:35:20;;;;;;;3.27;0.40;;;14.30;99.90;;;;;;5112975;28;20242;-46
2023/03/14 09:37:50;;;;;;;6.97;2.17;;;14.00;99.90;;;;;;5113366;27;20210;-47
2023/03/14 09:40:20;;;;;;;0.20;0.20;;;13.50;99.90;;;;;;5117785;27;20192;-47
2023/03/14 09:42:51;;;;;;;3.83;0.43;;;13.10;99.90;;;;;;5112805;28;20301;-47
2023/03/14 09:45:24;;;;;;;1.80;0.37;;;13.00;99.90;;;;;;5112816;28;20199;-48
2023/03/14 09:47:53;;;;;;;10.90;1.40;;;12.80;99.90;;;;;;5112812;28;20251;-48
2023/03/14 09:50:20;;;;;;;1.03;0.33;;;12.70;99.90;;;;;;5099087;28;20210;-48
2023/03/14 09:52:54;;;;;;;2.93;0.50;;;12.50;99.90;;;;;;5110055;28;20267;-48
2023/03/14 09:55:23;;;;;;;0.70;0.10;;;12.40;99.90;;;;;;5103166;28;20260;-47
2023/03/14 09:58:00;;;;;;;2.67;0.90;;;12.40;99.90;;;;;;5109316;28;20206;-48
2023/03/14 10:00:29;;;;;;;8.10;0.80;;;12.20;99.90;;;;;;5109817;28;20621;-48
2023/03/14 10:02:58;;;;;;;0.30;0.20;;;12.20;99.90;;;;;;5102757;28;20226;-49
2023/03/14 10:05:27;;;;;;;0.53;0.10;;;12.10;99.90;;;;;;5107573;28;20198;-47
2023/03/14 10:07:54;;;;;;;0.10;0.00;;;12.10;99.90;;;;;;5105224;28;20583;-47
2023/03/14 10:10:25;;;;;;;2.97;0.10;;;12.10;99.90;;;;;;5111075;28;20218;-48
2023/03/14 10:12:58;;;;;;;0.20;0.20;;;12.10;99.90;;;;;;5106727;28;20260;-47
2023/03/14 10:15:27;;;;;;;0.57;0.10;;;12.00;99.90;;;;;;5110240;28;20199;-48
2023/03/14 10:17:55;;;;;;;17.93;3.93;;;11.90;99.90;;;;;;5111645;28;20221;-46
2023/03/14 10:20:34;;;;;;;0.63;0.40;;;11.90;99.90;;;;;;5111405;28;20599;-48
2023/03/14 10:23:03;;;;;;;3.43;0.30;;;11.90;99.90;;;;;;5100398;28;20278;-49
2023/03/14 10:25:33;;;;;;;0.83;0.10;;;12.00;99.90;;;;;;5111644;28;20285;-47
2023/03/14 10:28:01;;;;;;;2.40;0.53;;;12.00;99.90;;;;;;5106656;28;20223;-48
2023/03/14 10:30:31;;;;;;;2.13;0.20;;;12.10;99.90;;;;;;5105374;28;20229;-48
2023/03/14 10:32:58;;;;;;;14.13;2.80;;;12.10;99.90;;;;;;5103070;28;20218;-47
2023/03/14 10:35:25;;;;;;;0.33;0.10;;;12.10;99.90;;;;;;5107735;28;20199;-47
2023/03/14 10:37:58;;;;;;;3.20;1.17;;;12.10;99.90;;;;;;5111283;28;20263;-48
2023/03/14 10:40:29;;;;;;;1.43;0.43;;;12.10;99.90;;;;;;5110788;28;20694;-47
2023/03/14 10:43:00;;;;;;;1.53;0.23;;;12.10;99.90;;;;;;5101328;28;20230;-47
2023/03/14 10:45:34;;;;;;;0.80;0.40;;;12.20;99.90;;;;;;5107203;28;20204;-48
2023/03/14 10:48:17;;;;;;;3.10;0.20;;;12.20;99.90;;;;;;5107138;28;20195;-47
2023/03/14 10:50:49;;;;;;;4.27;0.57;;;12.20;99.90;;;;;;5110502;28;20268;-48
2023/03/14 10:53:18;;;;;;;1.60;0.20;;;12.20;99.90;;;;;;5105263;28;20218;-48
2023/03/14 10:55:46;;;;;;;0.67;0.30;;;12.20;99.90;;;;;;5115453;28;20284;-47
2023/03/14 10:58:25;;;;;;;4.00;1.40;;;12.20;99.90;;;;;;5112775;28;20200;-47
2023/03/14 11:01:02;;;;;;;0.30;0.30;;;12.20;99.90;;;;;;5113141;28;20258;-48
2023/03/14 11:03:34;;;;;;;0.57;0.57;;;12.30;99.90;;;;;;5115899;28;20642;-47
2023/03/14 11:06:09;;;;;;;0.20;0.20;;;12.40;99.90;;;;;;5095594;28;20202;-47
2023/03/14 11:08:46;;;;;;;3.20;1.23;;;12.40;99.90;;;;;;5095653;28;20210;-48
2023/03/14 11:11:21;;;;;;;1.27;0.20;;;12.50;99.90;;;;;;5113437;28;20299;-47
2023/03/14 11:14:00;;;;;;;2.10;0.10;;;12.50;99.90;;;;;;5115799;28;20614;-47
2023/03/14 11:16:35;;;;;;;1.70;1.07;;;12.60;99.90;;;;;;5121833;27;20202;-47
2023/03/14 11:19:18;;;;;;;0.53;0.40;;;12.70;99.90;;;;;;5123375;27;20721;-47
2023/03/14 11:21:54;;;;;;;1.10;0.40;;;12.70;99.90;;;;;;5113715;28;20278;-47
2023/03/14 11:24:40;;;;;;;0.33;0.30;;;12.80;99.90;;;;;;5115765;28;20280;-47
2023/03/14 11:27:17;;;;;;;0.60;0.40;;;12.80;99.90;;;;;;5115708;28;20740;-47
2023/03/14 11:29:56;;;;;;;0.90;0.20;;;12.90;99.90;;;;;;5113667;28;20261;-46
2023/03/14 11:32:36;;;;;;;1.43;0.20;;;13.00;99.90;;;;;;5115067;28;20224;-48
2023/03/14 11:35:06;;;;;;;4.43;0.30;;;13.10;99.90;;;;;;5111806;28;20245;-47
2023/03/14 11:37:35;;;;;;;0.93;0.20;;;13.10;99.90;;;;;;5114858;28;20195;-48
2023/03/14 11:40:12;;;;;;;1.90;0.20;;;13.00;99.90;;;;;;5112540;28;20208;-46
2023/03/14 11:42:43;;;;;;;1.27;0.20;;;13.00;99.90;;;;;;5108802;28;20232;-49
2023/03/14 11:45:18;;;;;;;2.50;0.20;;;13.00;99.90;;;;;;5113149;28;20206;-47
2023/03/14 11:47:48;;;;;;;1.33;0.30;;;13.00;99.90;;;;;;5107017;28;20221;-47
2023/03/14 11:50:19;;;;;;;0.30;0.30;;;12.80;99.90;;;;;;5106308;28;20206;-47
2023/03/14 11:52:56;;;;;;;0.43;0.30;;;12.80;99.90;;;;;;5113616;28;20231;-46
2023/03/14 11:55:28;;;;;;;0.60;0.33;;;12.70;99.90;;;;;;5118623;27;20232;-48
2023/03/14 11:58:01;;;;;;;0.23;0.20;;;12.70;99.90;;;;;;5118023;27;20194;-47
2023/03/14 12:00:30;;;;;;;0.10;0.10;;;12.70;99.90;;;;;;5112003;27;20222;-47
2023/03/14 12:03:04;;;;;;;2.70;0.20;;;12.80;99.90;;;;;;5106332;28;20222;-49
2023/03/14 12:05:46;;;;;;;0.40;0.40;;;12.70;99.90;;;;;;5114783;28;20574;-47
2023/03/14 12:08:41;;;;;;;0.40;0.00;;;12.50;99.90;;;;;;5114423;28;20200;-47
2023/03/14 12:11:14;;;;;;;0.03;0.00;;;12.30;99.90;;;;;;5106615;28;20215;-47
2023/03/14 12:13:46;;;;;;;0.10;0.10;;;11.90;99.90;;;;;;5114496;28;20304;-48
2023/03/14 12:16:36;;;;;;;0.17;0.10;;;11.60;99.90;;;;;;5114627;28;20637;-47
2023/03/14 12:19:27;;;;;;;2.13;0.10;;;11.40;99.90;;;;;;5113706;28;20242;-48
2023/03/14 12:21:58;;;;;;;0.83;0.10;;;11.20;99.90;;;;;;5112699;28;20260;-48
2023/03/14 12:24:29;;;;;;;0.10;0.10;;;11.10;99.90;;;;;;5114250;28;20636;-47
2023/03/14 12:26:58;;;;;;;0.00;0.00;;;11.00;99.90;;;;;;5109677;28;20206;-47
2023/03/14 12:29:26;;;;;;;0.33;0.10;;;10.90;99.90;;;;;;5113535;28;20206;-47
2023/03/14 12:34:46;;;;;;;0.33;0.00;;;10.60;99.90;;;;;;5089745;28;20587;-46
2023/03/14 12:37:24;;;;;;;0.00;0.00;;;10.30;99.90;;;;;;5083027;28;20203;-46
2023/03/14 12:40:09;;;;;;;0.93;0.10;;;10.10;99.90;;;;;;5079551;28;20257;-47
2023/03/14 12:42:45;;;;;;;0.70;0.10;;;9.90;99.90;;;;;;5085853;28;20720;-48
2023/03/14 12:45:23;;;;;;;0.00;0.00;;;9.70;99.90;;;;;;5069158;28;20248;-48
2023/03/14 12:48:01;;;;;;;0.20;0.00;;;9.50;99.90;;;;;;5069110;28;20546;-47
2023/03/14 12:50:35;;;;;;;1.00;0.00;;;9.40;99.90;;;;;;5061948;28;20619;-47
2023/03/14 12:53:30;;;;;;;0.03;0.00;;;9.40;99.90;;;;;;5074907;28;20446;-47
2023/03/14 12:56:06;;;;;;;0.37;0.00;;;9.30;99.90;;;;;;5068912;28;20204;-47
2023/03/14 12:58:37;;;;;;;0.00;0.00;;;9.30;99.90;;;;;;5068494;28;20203;-46
2023/03/14 13:01:15;;;;;;;0.93;0.00;;;9.20;99.90;;;;;;5067343;28;20195;-47
2023/03/14 13:03:48;;;;;;;0.50;0.23;;;9.10;99.90;;;;;;5066232;28;20229;-47
2023/03/14 13:06:47;;;;;;;0.00;0.00;;;9.10;99.90;;;;;;5067175;28;20222;-46
2023/03/14 13:09:50;;;;;;;0.00;0.00;;;8.90;99.90;;;;;;5068848;28;20207;-47